sensor_id;sensor_type;location;lat;lon;timestamp;temperature;humidity
19256;DHT22;9762;52.490;13.410;2022-09-20T00:01:07;13.40;99.90
19256;DHT22;9762;52.490;13.410;2022-09-20T00:03:36;13.30;99.90
19256;DHT22;9762;52.490;13.410;2022-09-20T00:06:04;13.30;99.90
19256;DHT22;9762;52.490;13.410;2022-09-20T00:08:30;13.30;99.90
19256;DHT22;9762;52.490;13.410;2022-09-20T00:11:01;13.30;99.90
19256;DHT22;9762;52.490;13.410;2022-09-20T00:13:27;13.30;99.90
19256;DHT22;9762;52.490;13.410;2022-09-20T00:15:53;13.30;99.90
19256;DHT22;9762;52.490;13.410;2022-09-20T00:18:18;13.30;99.90
19256;DHT22;9762;52.490;13.410;2022-09-20T00:20:48;13.20;99.90
19256;DHT22;9762;52.490;13.410;2022-09-20T00:23:15;13.20;99.90
19256;DHT22;9762;52.490;13.410;2022-09-20T00:25:41;13.20;99.90
19256;DHT22;9762;52.490;13.410;2022-09-20T00:28:07;13.20;99.90
19256;DHT22;9762;52.490;13.410;2022-09-20T00:30:33;13.20;99.90
19256;DHT22;9762;52.490;13.410;2022-09-20T00:32:59;13.20;99.90
19256;DHT22;9762;52.490;13.410;2022-09-20T00:35:24;13.20;99.90
19256;DHT22;9762;52.490;13.410;2022-09-20T00:37:50;13.20;99.90
19256;DHT22;9762;52.490;13.410;2022-09-20T00:40:18;13.20;99.90
19256;DHT22;9762;52.490;13.410;2022-09-20T00:42:48;13.10;99.90
19256;DHT22;9762;52.490;13.410;2022-09-20T00:45:27;13.20;99.90
19256;DHT22;9762;52.490;13.410;2022-09-20T00:48:09;13.20;99.90
19256;DHT22;9762;52.490;13.410;2022-09-20T00:53:20;13.10;99.90
19256;DHT22;9762;52.490;13.410;2022-09-20T00:55:52;13.10;99.90
19256;DHT22;9762;52.490;13.410;2022-09-20T00:58:19;13.10;99.90
19256;DHT22;9762;52.490;13.410;2022-09-20T01:00:47;13.10;99.90
19256;DHT22;9762;52.490;13.410;2022-09-20T01:03:14;13.00;99.90
19256;DHT22;9762;52.490;13.410;2022-09-20T01:05:43;13.10;99.90
19256;DHT22;9762;52.490;13.410;2022-09-20T01:08:10;13.00;99.90
19256;DHT22;9762;52.490;13.410;2022-09-20T01:10:36;13.00;99.90
19256;DHT22;9762;52.490;13.410;2022-09-20T01:13:01;13.10;99.90
19256;DHT22;9762;52.490;13.410;2022-09-20T01:15:29;13.00;99.90
19256;DHT22;9762;52.490;13.410;2022-09-20T01:17:56;13.00;99.90
19256;DHT22;9762;52.490;13.410;2022-09-20T01:20:29;13.00;99.90
19256;DHT22;9762;52.490;13.410;2022-09-20T01:28:05;13.00;99.90
19256;DHT22;9762;52.490;13.410;2022-09-20T01:30:38;13.00;99.90
19256;DHT22;9762;52.490;13.410;2022-09-20T01:33:33;13.00;99.90
19256;DHT22;9762;52.490;13.410;2022-09-20T01:36:03;13.20;99.90
19256;DHT22;9762;52.490;13.410;2022-09-20T01:38:43;13.00;99.90
19256;DHT22;9762;52.490;13.410;2022-09-20T02:10:43;12.70;99.90
19256;DHT22;9762;52.490;13.410;2022-09-20T02:13:28;12.70;99.90
19256;DHT22;9762;52.490;13.410;2022-09-20T02:24:49;12.60;99.90
19256;DHT22;9762;52.490;13.410;2022-09-20T02:27:33;12.60;99.90
19256;DHT22;9762;52.490;13.410;2022-09-20T02:43:44;12.70;99.90
19256;DHT22;9762;52.490;13.410;2022-09-20T02:46:25;12.70;99.90
19256;DHT22;9762;52.490;13.410;2022-09-20T02:49:09;12.70;99.90
19256;DHT22;9762;52.490;13.410;2022-09-20T02:51:42;12.70;99.90
19256;DHT22;9762;52.490;13.410;2022-09-20T03:00:00;12.70;99.90
19256;DHT22;9762;52.490;13.410;2022-09-20T03:14:00;12.80;99.90
19256;DHT22;9762;52.490;13.410;2022-09-20T03:16:48;12.80;99.90
19256;DHT22;9762;52.490;13.410;2022-09-20T03:19:47;12.80;99.90
19256;DHT22;9762;52.490;13.410;2022-09-20T03:22:30;12.80;99.90
19256;DHT22;9762;52.490;13.410;2022-09-20T03:25:30;12.80;99.90
19256;DHT22;9762;52.490;13.410;2022-09-20T03:33:40;12.80;99.90
19256;DHT22;9762;52.490;13.410;2022-09-20T03:42:17;12.80;99.90
19256;DHT22;9762;52.490;13.410;2022-09-20T03:59:10;12.90;99.90
19256;DHT22;9762;52.490;13.410;2022-09-20T04:01:49;12.90;99.90
19256;DHT22;9762;52.490;13.410;2022-09-20T04:04:41;13.00;99.90
19256;DHT22;9762;52.490;13.410;2022-09-20T04:09:50;13.00;99.90
19256;DHT22;9762;52.490;13.410;2022-09-20T04:12:40;13.00;99.90
19256;DHT22;9762;52.490;13.410;2022-09-20T04:20:36;13.00;99.90
19256;DHT22;9762;52.490;13.410;2022-09-20T04:23:20;13.00;99.90
19256;DHT22;9762;52.490;13.410;2022-09-20T04:25:50;13.00;99.90
19256;DHT22;9762;52.490;13.410;2022-09-20T04:28:22;13.00;99.90
19256;DHT22;9762;52.490;13.410;2022-09-20T04:30:54;13.00;99.90
19256;DHT22;9762;52.490;13.410;2022-09-20T04:33:25;13.00;99.90
19256;DHT22;9762;52.490;13.410;2022-09-20T04:36:05;13.00;99.90
19256;DHT22;9762;52.490;13.410;2022-09-20T04:39:01;13.00;99.90
19256;DHT22;9762;52.490;13.410;2022-09-20T04:50:51;12.90;99.90
19256;DHT22;9762;52.490;13.410;2022-09-20T04:59:01;12.90;99.90
19256;DHT22;9762;52.490;13.410;2022-09-20T05:07:03;12.80;99.90
19256;DHT22;9762;52.490;13.410;2022-09-20T05:15:25;12.90;99.90
19256;DHT22;9762;52.490;13.410;2022-09-20T05:20:41;13.00;99.90
19256;DHT22;9762;52.490;13.410;2022-09-20T05:25:40;13.00;99.90
19256;DHT22;9762;52.490;13.410;2022-09-20T05:28:22;13.00;99.90
19256;DHT22;9762;52.490;13.410;2022-09-20T05:30:52;13.10;99.90
19256;DHT22;9762;52.490;13.410;2022-09-20T05:36:59;13.10;99.90
19256;DHT22;9762;52.490;13.410;2022-09-20T05:42:10;13.10;99.90
19256;DHT22;9762;52.490;13.410;2022-09-20T05:47:15;13.20;99.90
19256;DHT22;9762;52.490;13.410;2022-09-20T05:50:09;13.20;99.90
19256;DHT22;9762;52.490;13.410;2022-09-20T06:01:22;13.40;99.90
19256;DHT22;9762;52.490;13.410;2022-09-20T06:03:54;13.40;99.90
19256;DHT22;9762;52.490;13.410;2022-09-20T06:15:09;13.60;99.90
19256;DHT22;9762;52.490;13.410;2022-09-20T06:22:49;13.70;99.90
19256;DHT22;9762;52.490;13.410;2022-09-20T06:27:52;13.90;99.90
19256;DHT22;9762;52.490;13.410;2022-09-20T06:30:28;13.90;99.90
19256;DHT22;9762;52.490;13.410;2022-09-20T06:32:59;13.90;99.90
19256;DHT22;9762;52.490;13.410;2022-09-20T06:38:33;14.00;99.90
19256;DHT22;9762;52.490;13.410;2022-09-20T06:41:20;14.10;99.90
19256;DHT22;9762;52.490;13.410;2022-09-20T06:44:00;14.20;99.90
19256;DHT22;9762;52.490;13.410;2022-09-20T06:46:30;14.20;99.90
19256;DHT22;9762;52.490;13.410;2022-09-20T06:48:57;14.20;99.90
19256;DHT22;9762;52.490;13.410;2022-09-20T06:51:25;14.30;99.90
19256;DHT22;9762;52.490;13.410;2022-09-20T06:53:52;14.30;99.90
19256;DHT22;9762;52.490;13.410;2022-09-20T06:56:27;14.40;99.90
19256;DHT22;9762;52.490;13.410;2022-09-20T06:58:54;14.40;99.90
19256;DHT22;9762;52.490;13.410;2022-09-20T07:01:20;14.40;99.90
19256;DHT22;9762;52.490;13.410;2022-09-20T07:03:45;14.40;99.90
19256;DHT22;9762;52.490;13.410;2022-09-20T07:06:11;14.40;99.90
19256;DHT22;9762;52.490;13.410;2022-09-20T07:08:37;14.50;99.90
19256;DHT22;9762;52.490;13.410;2022-09-20T07:11:08;14.40;99.90
19256;DHT22;9762;52.490;13.410;2022-09-20T07:13:35;14.40;99.90
19256;DHT22;9762;52.490;13.410;2022-09-20T07:16:03;14.50;99.90
19256;DHT22;9762;52.490;13.410;2022-09-20T07:18:29;14.50;99.90
19256;DHT22;9762;52.490;13.410;2022-09-20T07:20:56;14.50;99.90
19256;DHT22;9762;52.490;13.410;2022-09-20T07:23:24;14.50;99.90
19256;DHT22;9762;52.490;13.410;2022-09-20T07:25:49;14.50;99.90
19256;DHT22;9762;52.490;13.410;2022-09-20T07:28:16;14.40;99.90
19256;DHT22;9762;52.490;13.410;2022-09-20T07:30:44;14.40;99.90
19256;DHT22;9762;52.490;13.410;2022-09-20T07:33:09;14.40;99.90
19256;DHT22;9762;52.490;13.410;2022-09-20T07:35:36;14.40;99.90
19256;DHT22;9762;52.490;13.410;2022-09-20T07:38:02;14.40;99.90
19256;DHT22;9762;52.490;13.410;2022-09-20T07:40:27;14.40;99.90
19256;DHT22;9762;52.490;13.410;2022-09-20T07:42:55;14.40;99.90
19256;DHT22;9762;52.490;13.410;2022-09-20T07:45:22;14.40;99.90
19256;DHT22;9762;52.490;13.410;2022-09-20T07:47:48;14.50;99.90
19256;DHT22;9762;52.490;13.410;2022-09-20T07:50:13;14.50;99.90
19256;DHT22;9762;52.490;13.410;2022-09-20T07:52:39;14.60;99.90
19256;DHT22;9762;52.490;13.410;2022-09-20T07:55:05;14.60;99.90
19256;DHT22;9762;52.490;13.410;2022-09-20T07:57:34;14.70;99.90
19256;DHT22;9762;52.490;13.410;2022-09-20T08:00:01;14.70;99.90
19256;DHT22;9762;52.490;13.410;2022-09-20T08:02:26;14.80;99.90
19256;DHT22;9762;52.490;13.410;2022-09-20T08:04:52;14.80;99.90
19256;DHT22;9762;52.490;13.410;2022-09-20T08:07:17;14.80;99.90
19256;DHT22;9762;52.490;13.410;2022-09-20T08:09:43;14.90;99.90
19256;DHT22;9762;52.490;13.410;2022-09-20T08:12:08;14.90;99.90
19256;DHT22;9762;52.490;13.410;2022-09-20T08:14:34;15.00;99.90
19256;DHT22;9762;52.490;13.410;2022-09-20T08:16:59;15.10;99.90
19256;DHT22;9762;52.490;13.410;2022-09-20T08:19:26;15.10;99.90
19256;DHT22;9762;52.490;13.410;2022-09-20T08:21:52;15.20;99.90
19256;DHT22;9762;52.490;13.410;2022-09-20T08:24:18;15.30;99.90
19256;DHT22;9762;52.490;13.410;2022-09-20T08:26:44;15.40;99.90
19256;DHT22;9762;52.490;13.410;2022-09-20T08:29:10;15.40;99.90
19256;DHT22;9762;52.490;13.410;2022-09-20T08:31:38;15.50;99.90
19256;DHT22;9762;52.490;13.410;2022-09-20T08:34:07;15.60;99.90
19256;DHT22;9762;52.490;13.410;2022-09-20T08:36:35;15.70;99.80
19256;DHT22;9762;52.490;13.410;2022-09-20T08:39:01;15.70;99.80
19256;DHT22;9762;52.490;13.410;2022-09-20T08:41:31;15.80;99.90
19256;DHT22;9762;52.490;13.410;2022-09-20T08:44:26;15.80;99.90
19256;DHT22;9762;52.490;13.410;2022-09-20T08:47:04;15.90;99.90
19256;DHT22;9762;52.490;13.410;2022-09-20T08:49:31;16.00;99.60
19256;DHT22;9762;52.490;13.410;2022-09-20T08:51:58;16.00;99.40
19256;DHT22;9762;52.490;13.410;2022-09-20T08:54:25;16.10;99.10
19256;DHT22;9762;52.490;13.410;2022-09-20T08:56:51;16.10;98.90
19256;DHT22;9762;52.490;13.410;2022-09-20T08:59:19;16.20;99.00
19256;DHT22;9762;52.490;13.410;2022-09-20T09:01:47;16.20;98.90
19256;DHT22;9762;52.490;13.410;2022-09-20T09:04:22;16.30;98.90
19256;DHT22;9762;52.490;13.410;2022-09-20T09:06:48;16.30;98.70
19256;DHT22;9762;52.490;13.410;2022-09-20T09:09:18;16.40;98.60
19256;DHT22;9762;52.490;13.410;2022-09-20T09:11:45;16.40;98.50
19256;DHT22;9762;52.490;13.410;2022-09-20T09:17:09;16.50;98.50
19256;DHT22;9762;52.490;13.410;2022-09-20T09:19:44;16.60;98.80
19256;DHT22;9762;52.490;13.410;2022-09-20T09:22:10;16.70;98.20
19256;DHT22;9762;52.490;13.410;2022-09-20T09:24:41;16.70;97.90
19256;DHT22;9762;52.490;13.410;2022-09-20T09:27:18;16.80;97.60
19256;DHT22;9762;52.490;13.410;2022-09-20T09:29:52;16.80;97.60
19256;DHT22;9762;52.490;13.410;2022-09-20T09:34:45;17.00;96.90
19256;DHT22;9762;52.490;13.410;2022-09-20T09:37:30;17.10;96.80
19256;DHT22;9762;52.490;13.410;2022-09-20T09:40:13;17.20;96.60
19256;DHT22;9762;52.490;13.410;2022-09-20T09:43:01;17.20;96.00
19256;DHT22;9762;52.490;13.410;2022-09-20T09:45:35;17.30;96.20
19256;DHT22;9762;52.490;13.410;2022-09-20T09:48:22;17.40;95.90
19256;DHT22;9762;52.490;13.410;2022-09-20T09:50:47;17.40;95.50
19256;DHT22;9762;52.490;13.410;2022-09-20T09:53:22;17.40;95.20
19256;DHT22;9762;52.490;13.410;2022-09-20T10:01:41;17.50;95.00
19256;DHT22;9762;52.490;13.410;2022-09-20T10:06:51;17.70;94.70
19256;DHT22;9762;52.490;13.410;2022-09-20T10:12:14;17.90;94.90
19256;DHT22;9762;52.490;13.410;2022-09-20T10:20:26;18.00;94.50
19256;DHT22;9762;52.490;13.410;2022-09-20T10:23:41;18.10;94.10
19256;DHT22;9762;52.490;13.410;2022-09-20T10:26:26;18.20;93.90
19256;DHT22;9762;52.490;13.410;2022-09-20T10:29:06;18.30;93.80
19256;DHT22;9762;52.490;13.410;2022-09-20T10:32:16;18.40;93.20
19256;DHT22;9762;52.490;13.410;2022-09-20T10:35:06;18.50;92.70
19256;DHT22;9762;52.490;13.410;2022-09-20T10:46:31;18.60;92.60
19256;DHT22;9762;52.490;13.410;2022-09-20T10:49:19;18.60;93.10
19256;DHT22;9762;52.490;13.410;2022-09-20T10:51:58;18.70;92.50
19256;DHT22;9762;52.490;13.410;2022-09-20T11:03:01;18.40;93.10
19256;DHT22;9762;52.490;13.410;2022-09-20T11:06:11;18.30;93.30
19256;DHT22;9762;52.490;13.410;2022-09-20T11:08:39;18.20;93.50
19256;DHT22;9762;52.490;13.410;2022-09-20T11:11:17;18.10;93.50
19256;DHT22;9762;52.490;13.410;2022-09-20T11:13:55;17.90;93.60
19256;DHT22;9762;52.490;13.410;2022-09-20T11:16:29;17.90;93.90
19256;DHT22;9762;52.490;13.410;2022-09-20T11:19:02;17.90;94.10
19256;DHT22;9762;52.490;13.410;2022-09-20T11:21:39;17.80;94.30
19256;DHT22;9762;52.490;13.410;2022-09-20T11:24:26;17.80;94.70
19256;DHT22;9762;52.490;13.410;2022-09-20T11:26:58;17.70;94.90
19256;DHT22;9762;52.490;13.410;2022-09-20T11:32:40;17.20;92.20
19256;DHT22;9762;52.490;13.410;2022-09-20T11:37:40;16.70;93.20
19256;DHT22;9762;52.490;13.410;2022-09-20T11:40:28;16.50;94.00
19256;DHT22;9762;52.490;13.410;2022-09-20T11:42:59;16.30;94.90
19256;DHT22;9762;52.490;13.410;2022-09-20T11:45:27;16.20;95.40
19256;DHT22;9762;52.490;13.410;2022-09-20T11:47:59;16.10;95.40
19256;DHT22;9762;52.490;13.410;2022-09-20T11:56:13;15.90;95.90
19256;DHT22;9762;52.490;13.410;2022-09-20T11:58:47;15.90;96.10
19256;DHT22;9762;52.490;13.410;2022-09-20T12:01:15;15.90;96.20
19256;DHT22;9762;52.490;13.410;2022-09-20T12:03:43;16.00;96.30
19256;DHT22;9762;52.490;13.410;2022-09-20T12:06:24;16.10;96.80
19256;DHT22;9762;52.490;13.410;2022-09-20T12:08:51;16.30;97.10
19256;DHT22;9762;52.490;13.410;2022-09-20T12:11:34;16.40;97.10
19256;DHT22;9762;52.490;13.410;2022-09-20T12:14:05;16.60;97.20
19256;DHT22;9762;52.490;13.410;2022-09-20T12:16:40;16.80;97.30
19256;DHT22;9762;52.490;13.410;2022-09-20T12:19:11;17.30;98.40
19256;DHT22;9762;52.490;13.410;2022-09-20T12:24:24;18.80;97.20
19256;DHT22;9762;52.490;13.410;2022-09-20T12:26:51;19.00;96.30
19256;DHT22;9762;52.490;13.410;2022-09-20T12:31:51;20.10;96.80
19256;DHT22;9762;52.490;13.410;2022-09-20T12:36:43;22.40;94.20
19256;DHT22;9762;52.490;13.410;2022-09-20T12:41:56;24.50;86.60
19256;DHT22;9762;52.490;13.410;2022-09-20T12:44:56;25.50;84.00
19256;DHT22;9762;52.490;13.410;2022-09-20T12:47:28;26.00;76.70
19256;DHT22;9762;52.490;13.410;2022-09-20T12:55:34;27.60;88.00
19256;DHT22;9762;52.490;13.410;2022-09-20T13:08:34;27.30;83.20
19256;DHT22;9762;52.490;13.410;2022-09-20T13:11:22;26.70;84.40
19256;DHT22;9762;52.490;13.410;2022-09-20T13:14:02;26.10;77.20
19256;DHT22;9762;52.490;13.410;2022-09-20T13:21:57;24.20;60.20
19256;DHT22;9762;52.490;13.410;2022-09-20T13:24:27;23.60;61.10
19256;DHT22;9762;52.490;13.410;2022-09-20T13:27:00;23.10;62.10
19256;DHT22;9762;52.490;13.410;2022-09-20T13:29:36;22.60;63.00
19256;DHT22;9762;52.490;13.410;2022-09-20T13:32:22;22.20;64.50
19256;DHT22;9762;52.490;13.410;2022-09-20T13:35:16;21.80;65.60
19256;DHT22;9762;52.490;13.410;2022-09-20T13:38:03;21.40;67.20
19256;DHT22;9762;52.490;13.410;2022-09-20T13:40:43;21.10;68.10
19256;DHT22;9762;52.490;13.410;2022-09-20T13:46:06;20.50;71.00
19256;DHT22;9762;52.490;13.410;2022-09-20T13:48:32;20.40;73.40
19256;DHT22;9762;52.490;13.410;2022-09-20T13:50:58;20.70;74.70
19256;DHT22;9762;52.490;13.410;2022-09-20T13:53:26;21.10;75.70
19256;DHT22;9762;52.490;13.410;2022-09-20T13:55:52;21.60;74.80
19256;DHT22;9762;52.490;13.410;2022-09-20T13:58:32;22.10;74.10
19256;DHT22;9762;52.490;13.410;2022-09-20T14:01:06;22.70;71.60
19256;DHT22;9762;52.490;13.410;2022-09-20T14:03:46;23.20;70.80
19256;DHT22;9762;52.490;13.410;2022-09-20T14:06:13;23.80;69.50
19256;DHT22;9762;52.490;13.410;2022-09-20T14:08:45;24.20;66.30
19256;DHT22;9762;52.490;13.410;2022-09-20T14:11:18;24.60;64.80
19256;DHT22;9762;52.490;13.410;2022-09-20T14:13:50;24.90;64.00
19256;DHT22;9762;52.490;13.410;2022-09-20T14:16:17;25.20;62.20
19256;DHT22;9762;52.490;13.410;2022-09-20T14:18:46;25.50;60.30
19256;DHT22;9762;52.490;13.410;2022-09-20T14:21:16;25.80;60.30
19256;DHT22;9762;52.490;13.410;2022-09-20T14:26:38;26.40;59.00
19256;DHT22;9762;52.490;13.410;2022-09-20T14:32:06;26.80;56.40
19256;DHT22;9762;52.490;13.410;2022-09-20T14:34:36;27.00;56.50
19256;DHT22;9762;52.490;13.410;2022-09-20T14:37:06;27.10;56.00
19256;DHT22;9762;52.490;13.410;2022-09-20T14:39:42;27.20;55.50
19256;DHT22;9762;52.490;13.410;2022-09-20T14:42:31;27.10;54.90
19256;DHT22;9762;52.490;13.410;2022-09-20T14:44:58;27.00;55.30
19256;DHT22;9762;52.490;13.410;2022-09-20T14:47:38;26.80;54.60
19256;DHT22;9762;52.490;13.410;2022-09-20T14:53:00;26.30;55.30
19256;DHT22;9762;52.490;13.410;2022-09-20T14:55:26;26.00;56.00
19256;DHT22;9762;52.490;13.410;2022-09-20T14:58:05;25.70;56.30
19256;DHT22;9762;52.490;13.410;2022-09-20T15:03:14;24.90;57.20
19256;DHT22;9762;52.490;13.410;2022-09-20T15:05:43;24.40;58.10
19256;DHT22;9762;52.490;13.410;2022-09-20T15:08:13;24.00;59.10
19256;DHT22;9762;52.490;13.410;2022-09-20T15:10:40;23.70;60.10
19256;DHT22;9762;52.490;13.410;2022-09-20T15:13:09;23.40;60.80
19256;DHT22;9762;52.490;13.410;2022-09-20T15:15:35;23.10;62.00
19256;DHT22;9762;52.490;13.410;2022-09-20T15:18:00;22.80;62.60
19256;DHT22;9762;52.490;13.410;2022-09-20T15:20:26;22.40;63.40
19256;DHT22;9762;52.490;13.410;2022-09-20T15:22:51;22.10;64.10
19256;DHT22;9762;52.490;13.410;2022-09-20T15:25:19;21.90;64.70
19256;DHT22;9762;52.490;13.410;2022-09-20T15:27:46;21.70;65.50
19256;DHT22;9762;52.490;13.410;2022-09-20T15:30:14;21.40;66.70
19256;DHT22;9762;52.490;13.410;2022-09-20T15:32:44;21.10;67.60
19256;DHT22;9762;52.490;13.410;2022-09-20T15:35:11;20.90;68.50
19256;DHT22;9762;52.490;13.410;2022-09-20T15:37:37;20.60;68.70
19256;DHT22;9762;52.490;13.410;2022-09-20T15:40:04;20.30;69.20
19256;DHT22;9762;52.490;13.410;2022-09-20T15:42:30;20.10;69.20
19256;DHT22;9762;52.490;13.410;2022-09-20T15:44:56;19.80;69.60
19256;DHT22;9762;52.490;13.410;2022-09-20T15:47:21;19.60;69.90
19256;DHT22;9762;52.490;13.410;2022-09-20T15:49:50;19.50;70.10
19256;DHT22;9762;52.490;13.410;2022-09-20T15:52:17;19.40;71.60
19256;DHT22;9762;52.490;13.410;2022-09-20T15:54:43;19.20;73.60
19256;DHT22;9762;52.490;13.410;2022-09-20T15:57:08;19.10;74.60
19256;DHT22;9762;52.490;13.410;2022-09-20T15:59:34;19.10;77.00
19256;DHT22;9762;52.490;13.410;2022-09-20T16:02:00;19.00;77.10
19256;DHT22;9762;52.490;13.410;2022-09-20T16:04:26;18.80;78.30
19256;DHT22;9762;52.490;13.410;2022-09-20T16:06:52;18.70;78.70
19256;DHT22;9762;52.490;13.410;2022-09-20T16:09:18;18.60;79.20
19256;DHT22;9762;52.490;13.410;2022-09-20T16:11:45;18.40;78.10
19256;DHT22;9762;52.490;13.410;2022-09-20T16:14:11;18.30;78.10
19256;DHT22;9762;52.490;13.410;2022-09-20T16:16:37;18.20;84.50
19256;DHT22;9762;52.490;13.410;2022-09-20T16:21:53;18.10;81.10
19256;DHT22;9762;52.490;13.410;2022-09-20T16:24:24;18.00;82.50
19256;DHT22;9762;52.490;13.410;2022-09-20T16:26:51;18.00;83.20
19256;DHT22;9762;52.490;13.410;2022-09-20T16:29:17;18.00;83.60
19256;DHT22;9762;52.490;13.410;2022-09-20T16:31:44;17.90;84.00
19256;DHT22;9762;52.490;13.410;2022-09-20T16:34:16;17.90;84.30
19256;DHT22;9762;52.490;13.410;2022-09-20T16:36:43;17.90;85.00
19256;DHT22;9762;52.490;13.410;2022-09-20T16:39:10;17.90;85.00
19256;DHT22;9762;52.490;13.410;2022-09-20T16:41:36;17.80;84.70
19256;DHT22;9762;52.490;13.410;2022-09-20T16:44:04;17.80;84.60
19256;DHT22;9762;52.490;13.410;2022-09-20T16:46:30;17.70;85.30
19256;DHT22;9762;52.490;13.410;2022-09-20T16:48:57;17.70;85.40
19256;DHT22;9762;52.490;13.410;2022-09-20T16:51:30;17.60;85.90
19256;DHT22;9762;52.490;13.410;2022-09-20T16:53:59;17.60;86.30
19256;DHT22;9762;52.490;13.410;2022-09-20T16:56:27;17.50;86.80
19256;DHT22;9762;52.490;13.410;2022-09-20T16:58:54;17.50;87.10
19256;DHT22;9762;52.490;13.410;2022-09-20T17:01:20;17.40;87.50
19256;DHT22;9762;52.490;13.410;2022-09-20T17:03:46;17.30;88.00
19256;DHT22;9762;52.490;13.410;2022-09-20T17:06:13;17.30;89.00
19256;DHT22;9762;52.490;13.410;2022-09-20T17:08:39;17.20;89.20
19256;DHT22;9762;52.490;13.410;2022-09-20T17:11:14;17.20;89.70
19256;DHT22;9762;52.490;13.410;2022-09-20T17:13:41;17.20;90.10
19256;DHT22;9762;52.490;13.410;2022-09-20T17:16:10;17.10;90.30
19256;DHT22;9762;52.490;13.410;2022-09-20T17:18:36;17.10;90.50
19256;DHT22;9762;52.490;13.410;2022-09-20T17:21:08;17.00;90.80
19256;DHT22;9762;52.490;13.410;2022-09-20T17:23:34;17.00;90.90
19256;DHT22;9762;52.490;13.410;2022-09-20T17:26:19;17.00;91.40
19256;DHT22;9762;52.490;13.410;2022-09-20T17:28:48;16.90;91.40
19256;DHT22;9762;52.490;13.410;2022-09-20T17:31:19;16.90;91.60
19256;DHT22;9762;52.490;13.410;2022-09-20T17:33:45;16.90;91.80
19256;DHT22;9762;52.490;13.410;2022-09-20T17:36:14;16.80;92.10
19256;DHT22;9762;52.490;13.410;2022-09-20T17:38:40;16.80;92.10
19256;DHT22;9762;52.490;13.410;2022-09-20T17:41:09;16.80;92.40
19256;DHT22;9762;52.490;13.410;2022-09-20T17:43:36;16.70;92.70
19256;DHT22;9762;52.490;13.410;2022-09-20T17:46:16;16.70;93.10
19256;DHT22;9762;52.490;13.410;2022-09-20T17:48:45;16.60;93.40
19256;DHT22;9762;52.490;13.410;2022-09-20T17:51:17;16.60;93.50
19256;DHT22;9762;52.490;13.410;2022-09-20T17:53:43;16.60;93.70
19256;DHT22;9762;52.490;13.410;2022-09-20T17:56:10;16.60;93.80
19256;DHT22;9762;52.490;13.410;2022-09-20T17:58:36;16.50;93.80
19256;DHT22;9762;52.490;13.410;2022-09-20T18:01:07;16.60;93.80
19256;DHT22;9762;52.490;13.410;2022-09-20T18:03:36;16.50;94.00
19256;DHT22;9762;52.490;13.410;2022-09-20T18:06:13;16.50;94.00
19256;DHT22;9762;52.490;13.410;2022-09-20T18:08:40;16.50;94.00
19256;DHT22;9762;52.490;13.410;2022-09-20T18:11:06;16.50;94.10
19256;DHT22;9762;52.490;13.410;2022-09-20T18:13:32;16.40;94.20
19256;DHT22;9762;52.490;13.410;2022-09-20T18:15:58;16.40;94.30
19256;DHT22;9762;52.490;13.410;2022-09-20T18:18:24;16.30;94.40
19256;DHT22;9762;52.490;13.410;2022-09-20T18:20:49;16.30;94.40
19256;DHT22;9762;52.490;13.410;2022-09-20T18:23:15;16.30;94.50
19256;DHT22;9762;52.490;13.410;2022-09-20T18:25:40;16.20;94.40
19256;DHT22;9762;52.490;13.410;2022-09-20T18:28:24;16.20;94.50
19256;DHT22;9762;52.490;13.410;2022-09-20T18:31:02;16.20;94.60
19256;DHT22;9762;52.490;13.410;2022-09-20T18:33:29;16.10;94.60
19256;DHT22;9762;52.490;13.410;2022-09-20T18:36:02;16.10;95.10
19256;DHT22;9762;52.490;13.410;2022-09-20T18:38:28;16.00;94.80
19256;DHT22;9762;52.490;13.410;2022-09-20T18:40:58;16.00;94.90
19256;DHT22;9762;52.490;13.410;2022-09-20T18:43:28;16.00;95.10
19256;DHT22;9762;52.490;13.410;2022-09-20T18:45:55;15.90;95.10
19256;DHT22;9762;52.490;13.410;2022-09-20T18:48:22;15.90;95.20
19256;DHT22;9762;52.490;13.410;2022-09-20T18:51:02;15.80;95.40
19256;DHT22;9762;52.490;13.410;2022-09-20T18:53:30;15.80;95.40
19256;DHT22;9762;52.490;13.410;2022-09-20T18:56:08;15.70;95.40
19256;DHT22;9762;52.490;13.410;2022-09-20T18:58:35;15.70;95.50
19256;DHT22;9762;52.490;13.410;2022-09-20T19:09:51;15.50;95.70
19256;DHT22;9762;52.490;13.410;2022-09-20T19:12:29;15.50;95.70
19256;DHT22;9762;52.490;13.410;2022-09-20T19:17:53;15.40;96.00
19256;DHT22;9762;52.490;13.410;2022-09-20T19:20:37;15.40;96.00
19256;DHT22;9762;52.490;13.410;2022-09-20T19:26:25;15.30;96.20
19256;DHT22;9762;52.490;13.410;2022-09-20T19:28:56;15.30;96.10
19256;DHT22;9762;52.490;13.410;2022-09-20T19:31:30;15.30;96.20
19256;DHT22;9762;52.490;13.410;2022-09-20T19:33:58;15.30;96.40
19256;DHT22;9762;52.490;13.410;2022-09-20T19:36:34;15.30;96.30
19256;DHT22;9762;52.490;13.410;2022-09-20T19:39:09;15.30;96.40
19256;DHT22;9762;52.490;13.410;2022-09-20T19:44:39;15.20;96.40
19256;DHT22;9762;52.490;13.410;2022-09-20T19:47:38;15.20;96.30
19256;DHT22;9762;52.490;13.410;2022-09-20T19:50:17;15.10;96.40
19256;DHT22;9762;52.490;13.410;2022-09-20T19:52:47;15.20;96.60
19256;DHT22;9762;52.490;13.410;2022-09-20T19:55:14;15.10;96.70
19256;DHT22;9762;52.490;13.410;2022-09-20T19:57:44;15.10;97.00
19256;DHT22;9762;52.490;13.410;2022-09-20T20:00:21;15.10;96.70
19256;DHT22;9762;52.490;13.410;2022-09-20T20:02:47;15.10;96.70
19256;DHT22;9762;52.490;13.410;2022-09-20T20:05:15;15.00;96.80
19256;DHT22;9762;52.490;13.410;2022-09-20T20:08:10;15.10;96.90
19256;DHT22;9762;52.490;13.410;2022-09-20T20:11:10;15.00;97.00
19256;DHT22;9762;52.490;13.410;2022-09-20T20:13:59;15.00;97.00
19256;DHT22;9762;52.490;13.410;2022-09-20T20:16:39;15.00;97.00
19256;DHT22;9762;52.490;13.410;2022-09-20T20:25:56;14.90;97.30
19256;DHT22;9762;52.490;13.410;2022-09-20T20:28:30;14.90;97.20
19256;DHT22;9762;52.490;13.410;2022-09-20T20:30:56;14.80;97.10
19256;DHT22;9762;52.490;13.410;2022-09-20T20:33:23;14.80;97.00
19256;DHT22;9762;52.490;13.410;2022-09-20T20:35:56;14.80;97.10
19256;DHT22;9762;52.490;13.410;2022-09-20T20:38:23;14.80;97.20
19256;DHT22;9762;52.490;13.410;2022-09-20T20:41:00;14.80;97.30
19256;DHT22;9762;52.490;13.410;2022-09-20T20:43:29;14.70;97.30
19256;DHT22;9762;52.490;13.410;2022-09-20T20:45:55;14.70;97.30
19256;DHT22;9762;52.490;13.410;2022-09-20T20:48:21;14.80;97.40
19256;DHT22;9762;52.490;13.410;2022-09-20T20:50:46;14.70;97.50
19256;DHT22;9762;52.490;13.410;2022-09-20T20:53:12;14.70;97.50
19256;DHT22;9762;52.490;13.410;2022-09-20T20:55:37;14.70;97.50
19256;DHT22;9762;52.490;13.410;2022-09-20T20:58:05;14.70;97.50
19256;DHT22;9762;52.490;13.410;2022-09-20T21:00:32;14.70;97.50
19256;DHT22;9762;52.490;13.410;2022-09-20T21:02:59;14.70;97.50